Time;durP1;ratioP1;P1;durP2;ratioP2;P2;SDS_P1;SDS_P2;PMS_P1;PMS_P2;Temp;Humidity;BMP_temperature;BMP_pressure;BME280_temperature;BME280_humidity;BME280_pressure;Samples;Min_cycle;Max_cycle;Signal;HPM_P1;HPM_P2
2021/12/09 00:02:13;;;;;;;0.85;0.77;;;2.70;99.90;;;;;;5075337;28;20024;-45
2021/12/09 00:04:39;;;;;;;0.00;0.00;;;2.70;99.90;;;;;;5075162;28;20128;-48
2021/12/09 00:07:05;;;;;;;0.00;0.00;;;2.60;99.90;;;;;;5075225;28;20052;-46
2021/12/09 00:09:31;;;;;;;0.00;0.00;;;2.70;99.90;;;;;;5075116;28;20020;-47
2021/12/09 00:11:58;;;;;;;0.65;0.60;;;2.70;99.90;;;;;;5074960;28;20032;-46
2021/12/09 00:14:27;;;;;;;0.32;0.32;;;2.70;99.90;;;;;;5074685;28;20071;-48
2021/12/09 00:16:57;;;;;;;0.00;0.00;;;2.80;99.90;;;;;;5074827;28;20024;-46
2021/12/09 00:19:24;;;;;;;0.00;0.00;;;2.70;99.90;;;;;;5074787;28;20020;-47
2021/12/09 00:21:50;;;;;;;4.20;0.93;;;2.60;99.90;;;;;;5075135;28;20029;-51
2021/12/09 00:24:16;;;;;;;0.57;0.57;;;2.60;99.90;;;;;;5073949;28;20456;-46
2021/12/09 00:26:44;;;;;;;0.20;0.15;;;2.50;99.90;;;;;;5074541;28;20051;-47
2021/12/09 00:29:14;;;;;;;0.28;0.28;;;2.50;99.90;;;;;;5074407;28;20437;-48
2021/12/09 00:31:39;;;;;;;0.00;0.00;;;2.50;99.90;;;;;;5074640;28;20514;-46
2021/12/09 00:34:05;;;;;;;0.03;0.03;;;2.40;99.90;;;;;;5074851;28;20048;-52
2021/12/09 00:36:39;;;;;;;1.25;1.13;;;2.50;99.90;;;;;;5074745;28;20056;-46
2021/12/09 00:39:07;;;;;;;0.00;0.00;;;2.50;99.90;;;;;;5074621;28;20036;-49
2021/12/09 00:41:33;;;;;;;1.38;1.27;;;2.50;99.90;;;;;;5074412;28;20025;-47
2021/12/09 00:43:59;;;;;;;0.75;0.75;;;2.40;99.90;;;;;;5074136;28;20024;-47
2021/12/09 00:46:25;;;;;;;0.00;0.00;;;2.40;99.90;;;;;;5074069;28;20074;-50
2021/12/09 00:48:51;;;;;;;0.65;0.65;;;2.50;99.90;;;;;;5074388;28;20021;-48
2021/12/09 00:51:17;;;;;;;0.38;0.38;;;2.60;99.90;;;;;;5074347;28;20047;-47
2021/12/09 00:53:43;;;;;;;0.70;0.70;;;2.60;99.90;;;;;;5074303;28;20412;-46
2021/12/09 00:56:11;;;;;;;12.43;6.07;;;2.40;99.90;;;;;;5074100;28;20082;-49
2021/12/09 00:58:38;;;;;;;0.28;0.15;;;2.40;99.90;;;;;;5074262;28;20025;-49
2021/12/09 01:01:06;;;;;;;0.08;0.08;;;2.40;99.90;;;;;;5074145;28;20025;-50
2021/12/09 01:03:33;;;;;;;0.00;0.00;;;2.50;99.90;;;;;;5073911;28;20040;-48
2021/12/09 01:05:59;;;;;;;0.98;0.45;;;2.40;99.90;;;;;;5074082;28;20101;-46
2021/12/09 01:08:25;;;;;;;0.32;0.28;;;2.40;99.90;;;;;;5073971;28;20510;-51
2021/12/09 01:10:51;;;;;;;0.00;0.00;;;2.50;99.90;;;;;;5073979;28;20029;-47
2021/12/09 01:13:17;;;;;;;0.00;0.00;;;2.40;99.90;;;;;;5073755;28;20414;-48
2021/12/09 01:15:43;;;;;;;0.00;0.00;;;2.50;99.90;;;;;;5073985;28;20024;-47
2021/12/09 01:18:08;;;;;;;0.00;0.00;;;2.40;99.90;;;;;;5073893;28;20059;-47
2021/12/09 01:20:34;;;;;;;0.00;0.00;;;2.30;99.90;;;;;;5073621;28;20036;-47
2021/12/09 01:23:02;;;;;;;0.00;0.00;;;2.40;99.90;;;;;;5073790;28;20361;-47
2021/12/09 01:25:32;;;;;;;0.00;0.00;;;2.30;99.90;;;;;;5073837;28;20036;-47
2021/12/09 01:27:58;;;;;;;0.00;0.00;;;2.20;99.90;;;;;;5073789;28;20364;-47
2021/12/09 01:30:24;;;;;;;0.30;0.25;;;2.30;99.90;;;;;;5073452;28;20254;-49
2021/12/09 01:32:54;;;;;;;0.95;0.10;;;2.20;99.90;;;;;;5073682;28;20027;-46
2021/12/09 01:35:33;;;;;;;0.75;0.75;;;2.20;99.90;;;;;;5073223;28;20031;-46
2021/12/09 01:38:07;;;;;;;0.15;0.15;;;2.10;99.90;;;;;;5073759;28;20428;-49
2021/12/09 01:40:32;;;;;;;0.10;0.10;;;2.10;99.90;;;;;;5055694;28;20039;-46
2021/12/09 01:42:59;;;;;;;0.98;0.82;;;2.10;99.90;;;;;;5073669;28;20029;-44
2021/12/09 01:45:26;;;;;;;0.00;0.00;;;2.00;99.90;;;;;;5073553;28;20095;-48
2021/12/09 01:47:52;;;;;;;0.00;0.00;;;2.00;99.90;;;;;;5073917;28;20029;-50
2021/12/09 01:50:19;;;;;;;0.00;0.00;;;2.00;99.90;;;;;;5073306;28;20035;-46
2021/12/09 01:52:45;;;;;;;0.85;0.80;;;2.00;99.90;;;;;;5073260;28;20099;-50
2021/12/09 01:55:13;;;;;;;0.00;0.00;;;2.10;99.90;;;;;;5073524;28;20521;-48
2021/12/09 01:57:39;;;;;;;4.10;3.80;;;2.10;99.90;;;;;;5073067;28;20056;-48
2021/12/09 02:00:13;;;;;;;1.02;0.73;;;2.10;99.90;;;;;;5073324;28;20477;-50
2021/12/09 02:02:40;;;;;;;0.10;0.10;;;2.10;99.90;;;;;;5073165;28;20057;-47
2021/12/09 02:05:07;;;;;;;0.00;0.00;;;2.10;99.90;;;;;;5073339;28;20064;-46
2021/12/09 02:07:33;;;;;;;0.00;0.00;;;2.10;99.90;;;;;;5068394;28;20120;-47
2021/12/09 02:09:58;;;;;;;0.40;0.40;;;2.10;99.90;;;;;;5067394;28;20052;-47
2021/12/09 02:12:24;;;;;;;0.00;0.00;;;2.00;99.90;;;;;;5071980;28;20048;-45
2021/12/09 02:14:52;;;;;;;0.00;0.00;;;2.10;99.90;;;;;;5050580;28;20025;-48
2021/12/09 02:17:18;;;;;;;0.10;0.10;;;2.00;99.90;;;;;;5071039;28;20025;-47
2021/12/09 02:19:44;;;;;;;0.20;0.20;;;2.10;99.90;;;;;;5071338;28;20078;-48
2021/12/09 02:22:14;;;;;;;0.00;0.00;;;2.00;99.90;;;;;;5071053;28;20049;-49
2021/12/09 02:24:40;;;;;;;0.00;0.00;;;2.10;99.90;;;;;;5050410;28;20083;-46
2021/12/09 02:27:06;;;;;;;0.30;0.30;;;2.00;99.90;;;;;;5064076;28;20028;-46
2021/12/09 02:29:31;;;;;;;1.75;0.20;;;2.00;99.90;;;;;;5072467;28;20020;-50
2021/12/09 02:31:58;;;;;;;3.92;3.33;;;2.00;99.90;;;;;;5071265;28;20024;-48
2021/12/09 02:34:24;;;;;;;0.38;0.38;;;2.00;99.90;;;;;;5063500;28;20032;-51
2021/12/09 02:36:51;;;;;;;0.00;0.00;;;2.00;99.90;;;;;;5072835;28;20083;-47
2021/12/09 02:39:17;;;;;;;0.00;0.00;;;2.00;99.90;;;;;;5073012;28;20487;-48
2021/12/09 02:41:45;;;;;;;0.00;0.00;;;2.10;99.90;;;;;;5072817;28;20028;-48
2021/12/09 02:44:14;;;;;;;0.45;0.30;;;2.00;99.90;;;;;;5072579;28;20365;-47
2021/12/09 02:46:41;;;;;;;0.10;0.10;;;2.00;99.90;;;;;;5071309;28;20456;-48
2021/12/09 02:49:13;;;;;;;7.47;2.95;;;2.00;99.90;;;;;;5071186;28;20487;-47
2021/12/09 02:51:40;;;;;;;0.00;0.00;;;1.90;99.90;;;;;;5076504;28;20052;-50
2021/12/09 02:54:08;;;;;;;0.00;0.00;;;1.90;99.90;;;;;;5076179;28;20499;-49
2021/12/09 02:56:34;;;;;;;0.00;0.00;;;1.90;99.90;;;;;;5072051;28;20033;-47
2021/12/09 02:59:00;;;;;;;0.57;0.30;;;2.00;99.90;;;;;;5075403;28;20029;-48
2021/12/09 03:01:30;;;;;;;0.00;0.00;;;2.00;99.90;;;;;;5074187;28;20021;-48
2021/12/09 03:03:59;;;;;;;0.40;0.40;;;2.10;99.90;;;;;;5074188;28;20078;-51
2021/12/09 03:06:36;;;;;;;0.28;0.28;;;2.00;99.90;;;;;;5074670;28;20371;-49
2021/12/09 03:09:07;;;;;;;0.00;0.00;;;2.10;99.90;;;;;;5074157;28;20094;-48
2021/12/09 03:11:33;;;;;;;2.83;1.08;;;2.10;99.90;;;;;;5073882;28;20460;-49
2021/12/09 03:13:59;;;;;;;0.00;0.00;;;2.00;99.90;;;;;;5074130;28;20031;-49
2021/12/09 03:16:26;;;;;;;0.32;0.32;;;2.10;99.90;;;;;;5075743;28;20055;-47
2021/12/09 03:18:58;;;;;;;0.35;0.35;;;2.00;99.90;;;;;;5076160;28;20489;-48
2021/12/09 03:21:27;;;;;;;0.38;0.38;;;2.00;99.90;;;;;;5076239;28;20024;-49
2021/12/09 03:23:54;;;;;;;0.00;0.00;;;2.00;99.90;;;;;;5075733;28;20043;-49
2021/12/09 03:26:28;;;;;;;0.03;0.03;;;2.10;99.90;;;;;;5075985;28;20071;-49
2021/12/09 03:28:55;;;;;;;0.05;0.05;;;2.10;99.90;;;;;;5075808;28;20107;-47
2021/12/09 03:31:21;;;;;;;0.00;0.00;;;2.00;99.90;;;;;;5075652;28;20051;-46
2021/12/09 03:33:47;;;;;;;0.00;0.00;;;2.00;99.90;;;;;;5075934;28;20029;-48
2021/12/09 03:36:13;;;;;;;0.00;0.00;;;2.10;99.90;;;;;;5075838;28;20059;-48
2021/12/09 03:38:40;;;;;;;0.20;0.10;;;2.10;99.90;;;;;;5075814;28;20459;-50
2021/12/09 03:41:06;;;;;;;0.10;0.10;;;2.00;99.90;;;;;;5075701;28;20043;-47
2021/12/09 03:43:32;;;;;;;0.00;0.00;;;2.00;99.90;;;;;;5075435;28;20079;-46
2021/12/09 03:46:00;;;;;;;0.00;0.00;;;2.10;99.90;;;;;;5075413;28;20021;-46
2021/12/09 03:48:28;;;;;;;0.00;0.00;;;2.20;99.90;;;;;;5075633;28;20079;-46
2021/12/09 03:50:54;;;;;;;0.00;0.00;;;2.10;99.90;;;;;;5075623;28;20029;-50
2021/12/09 03:53:20;;;;;;;0.00;0.00;;;2.00;99.90;;;;;;5075329;28;20494;-49
2021/12/09 03:55:47;;;;;;;0.00;0.00;;;2.20;99.90;;;;;;5075490;28;20035;-45
2021/12/09 03:58:13;;;;;;;0.10;0.10;;;2.20;99.90;;;;;;5075097;28;20463;-51
2021/12/09 04:00:39;;;;;;;0.00;0.00;;;2.20;99.90;;;;;;5075284;28;20036;-47
2021/12/09 04:03:05;;;;;;;0.00;0.00;;;2.20;99.90;;;;;;5074991;28;20056;-46
2021/12/09 04:05:30;;;;;;;0.00;0.00;;;2.30;99.90;;;;;;5075264;28;20462;-49
2021/12/09 04:07:56;;;;;;;0.00;0.00;;;2.40;99.90;;;;;;5075227;28;20028;-46
2021/12/09 04:10:22;;;;;;;0.00;0.00;;;2.40;99.90;;;;;;5075017;28;20025;-50
2021/12/09 04:12:48;;;;;;;0.50;0.50;;;2.30;99.90;;;;;;5075126;28;20077;-48
2021/12/09 04:15:14;;;;;;;0.00;0.00;;;2.30;99.90;;;;;;5074608;28;20128;-48
2021/12/09 04:17:39;;;;;;;0.00;0.00;;;2.20;99.90;;;;;;5075200;28;20024;-47
2021/12/09 04:20:07;;;;;;;0.00;0.00;;;2.20;99.90;;;;;;5075062;28;20071;-47
2021/12/09 04:22:33;;;;;;;0.00;0.00;;;2.10;99.90;;;;;;5075261;28;20486;-46
2021/12/09 04:24:59;;;;;;;0.38;0.38;;;2.30;99.90;;;;;;5074923;28;20082;-48
2021/12/09 04:27:25;;;;;;;0.47;0.32;;;2.10;99.90;;;;;;5074654;28;20033;-48
2021/12/09 04:29:52;;;;;;;1.30;0.47;;;2.10;99.90;;;;;;5074391;28;20024;-49
2021/12/09 04:32:19;;;;;;;0.00;0.00;;;2.20;99.90;;;;;;5074570;28;20032;-47
2021/12/09 04:34:45;;;;;;;1.17;0.75;;;2.20;99.90;;;;;;5074597;28;20078;-51
2021/12/09 04:37:11;;;;;;;0.22;0.22;;;2.20;99.90;;;;;;5074475;28;20029;-47
2021/12/09 04:39:37;;;;;;;1.15;1.05;;;2.10;99.90;;;;;;5074558;28;20058;-46
2021/12/09 04:42:05;;;;;;;0.00;0.00;;;1.90;99.90;;;;;;5074321;28;20024;-49
2021/12/09 04:44:30;;;;;;;0.10;0.10;;;1.90;99.90;;;;;;5074114;28;20042;-47
2021/12/09 04:46:57;;;;;;;0.00;0.00;;;2.00;99.90;;;;;;5074398;28;20055;-50
2021/12/09 04:49:23;;;;;;;0.08;0.05;;;2.00;99.90;;;;;;5074285;28;20047;-49
2021/12/09 04:51:49;;;;;;;1.42;0.25;;;2.00;99.90;;;;;;5073988;28;20025;-48
2021/12/09 04:54:15;;;;;;;0.43;0.40;;;2.10;99.90;;;;;;5074182;28;20043;-51
2021/12/09 04:56:41;;;;;;;0.38;0.38;;;2.10;99.90;;;;;;5073707;28;20395;-48
2021/12/09 04:59:07;;;;;;;0.00;0.00;;;2.10;99.90;;;;;;5073728;28;20032;-46
2021/12/09 05:01:34;;;;;;;0.10;0.10;;;2.00;99.90;;;;;;5073666;28;20422;-52
2021/12/09 05:04:01;;;;;;;0.13;0.13;;;2.00;99.90;;;;;;5073974;28;20472;-46
2021/12/09 05:06:29;;;;;;;0.00;0.00;;;1.90;99.90;;;;;;5073848;28;20066;-47
2021/12/09 05:09:05;;;;;;;0.17;0.17;;;2.00;99.90;;;;;;5073712;28;20423;-46
2021/12/09 05:11:47;;;;;;;1.38;1.20;;;2.00;99.90;;;;;;5073837;28;20123;-48
2021/12/09 05:14:15;;;;;;;0.28;0.28;;;2.00;99.90;;;;;;5055947;28;20031;-46
2021/12/09 05:16:43;;;;;;;0.10;0.10;;;2.00;99.90;;;;;;5073752;28;20070;-46
2021/12/09 05:19:08;;;;;;;0.00;0.00;;;2.00;99.90;;;;;;5073909;28;20056;-46
2021/12/09 05:21:37;;;;;;;0.47;0.45;;;2.00;99.90;;;;;;5073791;28;20455;-49
2021/12/09 05:24:08;;;;;;;0.00;0.00;;;2.00;99.90;;;;;;5055560;28;20374;-47
2021/12/09 05:26:40;;;;;;;3.22;1.17;;;2.00;99.90;;;;;;5073778;28;20029;-46
2021/12/09 05:29:06;;;;;;;0.40;0.40;;;2.00;99.90;;;;;;5073653;28;20094;-51
2021/12/09 05:34:17;;;;;;;2.95;2.75;;;2.00;99.90;;;;;;5073300;28;20081;-46
2021/12/09 05:36:42;;;;;;;1.10;0.65;;;2.10;99.90;;;;;;5072923;28;20033;-52
2021/12/09 05:39:11;;;;;;;0.00;0.00;;;2.10;99.90;;;;;;5073465;28;20174;-48
2021/12/09 05:41:38;;;;;;;0.63;0.35;;;2.20;99.90;;;;;;5073295;28;20078;-48
2021/12/09 05:44:05;;;;;;;0.73;0.68;;;2.20;99.90;;;;;;5073370;28;20475;-48
2021/12/09 05:46:34;;;;;;;0.00;0.00;;;2.10;99.90;;;;;;5073057;28;20451;-49
2021/12/09 05:48:59;;;;;;;0.20;0.20;;;2.30;99.90;;;;;;5072985;28;20020;-46
2021/12/09 05:51:26;;;;;;;0.60;0.60;;;2.30;99.90;;;;;;5072879;28;20482;-49
2021/12/09 05:53:53;;;;;;;0.75;0.63;;;2.30;99.90;;;;;;5072915;28;20021;-49
2021/12/09 05:56:19;;;;;;;0.38;0.38;;;2.20;99.90;;;;;;5072828;28;20024;-48
2021/12/09 05:58:44;;;;;;;1.10;0.82;;;2.10;99.90;;;;;;5073202;28;20033;-47
2021/12/09 06:01:10;;;;;;;4.78;0.93;;;2.20;99.90;;;;;;5072652;28;20025;-49
2021/12/09 06:03:36;;;;;;;0.00;0.00;;;2.10;99.90;;;;;;5072587;28;20048;-47
2021/12/09 06:06:02;;;;;;;0.10;0.10;;;2.00;99.90;;;;;;5072910;28;20059;-46
2021/12/09 06:08:28;;;;;;;2.75;2.55;;;2.00;99.90;;;;;;5065316;28;20107;-50
2021/12/09 06:10:54;;;;;;;0.00;0.00;;;2.20;99.90;;;;;;5068002;28;20511;-51
2021/12/09 06:13:22;;;;;;;0.00;0.00;;;2.30;99.90;;;;;;5072211;28;20066;-50
2021/12/09 06:15:48;;;;;;;0.00;0.00;;;2.30;99.90;;;;;;5054906;28;20033;-50
2021/12/09 06:18:13;;;;;;;0.00;0.00;;;2.20;99.90;;;;;;5068441;28;20094;-51
2021/12/09 06:20:40;;;;;;;0.00;0.00;;;2.20;99.90;;;;;;5070962;28;20394;-50
2021/12/09 06:23:06;;;;;;;0.17;0.08;;;2.20;99.90;;;;;;5047472;28;20029;-49
2021/12/09 06:25:32;;;;;;;0.00;0.00;;;2.40;99.90;;;;;;5060753;28;20029;-47
2021/12/09 06:27:58;;;;;;;0.00;0.00;;;2.40;99.90;;;;;;5058517;28;20085;-48
2021/12/09 06:30:25;;;;;;;0.47;0.47;;;2.30;99.90;;;;;;5055988;28;20561;-48
2021/12/09 06:32:51;;;;;;;0.17;0.17;;;2.40;99.90;;;;;;5066469;28;20029;-49
2021/12/09 06:35:20;;;;;;;0.00;0.00;;;2.50;99.90;;;;;;5058922;28;20390;-47
2021/12/09 06:37:48;;;;;;;0.00;0.00;;;2.50;99.90;;;;;;5071217;28;20028;-50
2021/12/09 06:40:17;;;;;;;0.00;0.00;;;2.40;99.90;;;;;;5067730;28;20514;-51
2021/12/09 06:42:44;;;;;;;0.20;0.20;;;2.40;99.90;;;;;;5089588;28;20035;-53
2021/12/09 06:45:12;;;;;;;0.00;0.00;;;2.40;99.90;;;;;;5054773;28;20095;-46
2021/12/09 06:47:38;;;;;;;0.00;0.00;;;2.20;99.90;;;;;;5070772;28;20111;-48
2021/12/09 06:50:06;;;;;;;0.17;0.17;;;2.30;99.90;;;;;;5075531;28;20029;-49
2021/12/09 06:52:32;;;;;;;0.00;0.00;;;2.30;99.90;;;;;;5075520;28;20059;-47
2021/12/09 06:54:58;;;;;;;0.00;0.00;;;2.20;99.90;;;;;;5075301;28;20021;-50
2021/12/09 06:57:23;;;;;;;6.40;0.65;;;2.40;99.90;;;;;;5075723;28;20067;-47
2021/12/09 06:59:49;;;;;;;0.00;0.00;;;2.40;99.90;;;;;;5075737;28;20052;-48
2021/12/09 07:02:15;;;;;;;1.85;1.55;;;2.40;99.90;;;;;;5075426;28;20024;-48
2021/12/09 07:04:40;;;;;;;0.00;0.00;;;2.30;99.90;;;;;;5092997;28;20089;-48
2021/12/09 07:07:06;;;;;;;0.35;0.35;;;2.30;99.90;;;;;;5077726;28;20024;-47
2021/12/09 07:09:32;;;;;;;0.00;0.00;;;2.40;99.90;;;;;;5095988;28;20027;-48
2021/12/09 07:11:58;;;;;;;0.00;0.00;;;2.50;99.90;;;;;;5095629;28;20027;-49
2021/12/09 07:14:24;;;;;;;0.00;0.00;;;2.50;99.90;;;;;;5095582;28;20032;-49
2021/12/09 07:16:50;;;;;;;0.00;0.00;;;2.50;99.90;;;;;;5095066;28;20489;-47
2021/12/09 07:19:16;;;;;;;0.00;0.00;;;2.50;99.90;;;;;;5095444;28;20056;-46
2021/12/09 07:21:42;;;;;;;0.43;0.30;;;2.50;99.90;;;;;;5095841;28;20035;-48
2021/12/09 07:24:08;;;;;;;0.13;0.13;;;2.50;99.90;;;;;;5095253;28;20115;-48
2021/12/09 07:26:34;;;;;;;0.00;0.00;;;2.40;99.90;;;;;;5095035;28;20032;-49
2021/12/09 07:29:00;;;;;;;0.00;0.00;;;2.40;99.90;;;;;;5095129;28;20067;-48
2021/12/09 07:31:27;;;;;;;1.15;1.05;;;2.40;99.90;;;;;;5094933;28;20370;-46
2021/12/09 07:33:54;;;;;;;0.45;0.32;;;2.30;99.90;;;;;;5094741;28;20484;-47
2021/12/09 07:36:20;;;;;;;0.00;0.00;;;2.30;99.90;;;;;;5095257;28;20104;-48
2021/12/09 07:38:46;;;;;;;0.00;0.00;;;2.40;99.90;;;;;;5076816;28;20032;-51
2021/12/09 07:41:13;;;;;;;0.00;0.00;;;2.40;99.90;;;;;;5094746;28;20024;-48
2021/12/09 07:43:40;;;;;;;0.00;0.00;;;2.50;99.90;;;;;;5094805;28;20413;-47
2021/12/09 07:46:05;;;;;;;0.80;0.38;;;2.50;99.90;;;;;;5095054;28;20046;-47
2021/12/09 07:48:31;;;;;;;0.45;0.45;;;2.40;99.90;;;;;;5094824;28;20441;-49
2021/12/09 07:50:57;;;;;;;1.30;0.43;;;2.30;99.90;;;;;;5094714;28;20470;-47
2021/12/09 07:53:23;;;;;;;0.08;0.08;;;2.40;99.90;;;;;;5094775;28;20082;-49
2021/12/09 07:55:50;;;;;;;52.40;12.18;;;2.40;99.90;;;;;;5094376;28;20028;-49
2021/12/09 07:58:16;;;;;;;0.30;0.00;;;2.40;99.90;;;;;;5094571;28;20020;-48
2021/12/09 08:00:42;;;;;;;0.00;0.00;;;2.40;99.90;;;;;;5094259;28;20085;-49
2021/12/09 08:03:08;;;;;;;0.00;0.00;;;2.40;99.90;;;;;;5094780;28;20376;-49
2021/12/09 08:05:37;;;;;;;0.52;0.52;;;2.40;99.90;;;;;;5094750;28;20039;-48
2021/12/09 08:08:04;;;;;;;0.35;0.15;;;2.40;99.90;;;;;;5094785;28;20055;-49
2021/12/09 08:10:30;;;;;;;0.13;0.13;;;2.30;99.90;;;;;;5094633;28;20103;-45
2021/12/09 08:12:57;;;;;;;0.20;0.13;;;2.30;99.90;;;;;;5094439;28;20435;-48
2021/12/09 08:15:23;;;;;;;0.00;0.00;;;2.30;99.90;;;;;;5094370;28;20039;-47
2021/12/09 08:18:01;;;;;;;0.00;0.00;;;2.40;99.90;;;;;;5094116;28;20024;-48
2021/12/09 08:20:29;;;;;;;0.00;0.00;;;2.50;99.90;;;;;;5094441;28;20043;-46
2021/12/09 08:22:55;;;;;;;3.20;0.60;;;2.50;99.90;;;;;;5094191;28;20020;-50
2021/12/09 08:25:22;;;;;;;0.13;0.13;;;2.50;99.90;;;;;;5094507;28;20019;-46
2021/12/09 08:27:48;;;;;;;0.40;0.28;;;2.60;99.90;;;;;;5094245;28;20335;-45
2021/12/09 08:30:20;;;;;;;0.10;0.10;;;2.60;99.90;;;;;;5094736;28;20454;-47
2021/12/09 08:32:47;;;;;;;0.00;0.00;;;2.60;99.90;;;;;;5094428;28;20107;-49
2021/12/09 08:35:15;;;;;;;0.00;0.00;;;2.60;99.90;;;;;;5094344;28;20106;-48
2021/12/09 08:37:41;;;;;;;0.00;0.00;;;2.70;99.90;;;;;;5094059;28;20047;-51
2021/12/09 08:40:07;;;;;;;0.05;0.00;;;2.60;99.90;;;;;;5094051;28;20024;-46
2021/12/09 08:42:34;;;;;;;0.10;0.10;;;2.60;99.90;;;;;;5094093;28;20055;-47
2021/12/09 08:45:00;;;;;;;0.00;0.00;;;2.60;99.90;;;;;;5093179;28;20024;-47
2021/12/09 08:47:25;;;;;;;0.00;0.00;;;2.50;99.90;;;;;;5075896;28;20081;-47
2021/12/09 08:49:51;;;;;;;0.15;0.03;;;2.50;99.90;;;;;;5094131;28;20429;-47
2021/12/09 08:52:17;;;;;;;0.03;0.03;;;2.60;99.90;;;;;;5094100;28;20111;-46
2021/12/09 08:54:43;;;;;;;0.00;0.00;;;2.50;99.90;;;;;;5075717;28;20028;-47
2021/12/09 08:57:10;;;;;;;0.10;0.10;;;2.50;99.90;;;;;;5093872;28;20038;-48
2021/12/09 08:59:36;;;;;;;0.55;0.40;;;2.50;99.90;;;;;;5075448;28;20362;-50
2021/12/09 09:02:03;;;;;;;0.00;0.00;;;2.40;99.90;;;;;;5092403;28;20379;-49
2021/12/09 09:04:28;;;;;;;0.00;0.00;;;2.40;99.90;;;;;;5093874;28;20091;-50
2021/12/09 09:06:57;;;;;;;0.00;0.00;;;2.50;99.90;;;;;;5093540;28;20063;-49
2021/12/09 09:09:26;;;;;;;0.25;0.20;;;2.50;99.90;;;;;;5093853;28;20020;-48
2021/12/09 09:11:55;;;;;;;0.00;0.00;;;2.50;99.90;;;;;;5075570;28;20027;-50
2021/12/09 09:14:21;;;;;;;0.00;0.00;;;2.50;99.90;;;;;;5093877;28;20058;-45
2021/12/09 09:16:47;;;;;;;0.10;0.10;;;2.60;99.90;;;;;;5093329;28;20032;-50
2021/12/09 09:19:13;;;;;;;0.52;0.52;;;2.50;99.90;;;;;;5093310;28;20024;-48
2021/12/09 09:21:42;;;;;;;0.00;0.00;;;2.60;99.90;;;;;;5093149;28;20025;-46
2021/12/09 09:24:08;;;;;;;0.00;0.00;;;2.50;99.90;;;;;;5093431;28;20046;-45
2021/12/09 09:26:34;;;;;;;2.38;0.88;;;2.70;99.90;;;;;;5093653;28;20024;-51
2021/12/09 09:29:00;;;;;;;0.68;0.25;;;2.70;99.90;;;;;;5093576;28;20111;-45
2021/12/09 09:31:29;;;;;;;0.22;0.22;;;2.60;99.90;;;;;;5093147;28;20115;-47
2021/12/09 09:33:55;;;;;;;1.75;0.75;;;2.50;99.90;;;;;;5093063;28;20024;-48
2021/12/09 09:36:21;;;;;;;0.25;0.25;;;2.60;99.90;;;;;;5093166;28;20031;-45
2021/12/09 09:38:47;;;;;;;0.47;0.47;;;2.50;99.90;;;;;;5092981;28;20060;-48
2021/12/09 09:41:16;;;;;;;16.98;3.83;;;2.50;99.90;;;;;;5092858;28;20100;-46
2021/12/09 09:46:21;;;;;;;0.63;0.43;;;2.60;99.90;;;;;;5092958;28;20459;-51
2021/12/09 09:48:49;;;;;;;0.17;0.17;;;2.70;99.90;;;;;;5074710;28;20024;-47
2021/12/09 09:51:17;;;;;;;0.40;0.40;;;2.60;99.90;;;;;;5092528;28;20028;-51
2021/12/09 09:53:43;;;;;;;0.28;0.28;;;2.50;99.90;;;;;;5074738;28;20123;-49
2021/12/09 09:56:17;;;;;;;0.38;0.30;;;2.60;99.90;;;;;;5092849;28;20028;-48
2021/12/09 09:58:45;;;;;;;0.68;0.68;;;2.70;99.90;;;;;;5075003;28;20417;-50
2021/12/09 10:01:11;;;;;;;3.13;0.52;;;2.70;99.90;;;;;;5092851;28;20107;-50
2021/12/09 10:03:46;;;;;;;1.42;1.23;;;2.70;99.90;;;;;;5092757;28;20048;-48
2021/12/09 10:06:13;;;;;;;0.38;0.38;;;2.70;99.90;;;;;;5093089;28;20028;-50
2021/12/09 10:08:39;;;;;;;0.82;0.73;;;2.90;99.90;;;;;;5092611;28;20025;-47
2021/12/09 10:11:06;;;;;;;1.55;1.02;;;3.00;99.90;;;;;;5092936;28;20112;-47
2021/12/09 10:13:38;;;;;;;2.70;0.95;;;2.90;99.90;;;;;;5092807;28;20020;-47
2021/12/09 10:16:14;;;;;;;3.10;2.00;;;2.90;99.90;;;;;;5092700;28;20493;-49
2021/12/09 10:18:43;;;;;;;1.25;0.63;;;2.90;99.90;;;;;;5092519;28;20466;-47
2021/12/09 10:21:12;;;;;;;1.85;1.60;;;2.90;99.90;;;;;;5092447;28;20115;-49
2021/12/09 10:23:37;;;;;;;0.05;0.00;;;2.90;99.90;;;;;;5091288;28;20469;-46
2021/12/09 10:26:40;;;;;;;0.10;0.10;;;2.80;99.90;;;;;;5092621;28;20103;-49
2021/12/09 10:29:16;;;;;;;3.65;1.80;;;3.00;99.90;;;;;;5092556;28;20104;-48
2021/12/09 10:31:43;;;;;;;0.28;0.28;;;3.20;99.90;;;;;;5092881;28;20020;-48
2021/12/09 10:34:17;;;;;;;1.38;0.82;;;3.10;99.90;;;;;;5092408;28;20066;-50
2021/12/09 10:36:47;;;;;;;1.23;1.10;;;3.00;99.90;;;;;;5092507;28;20028;-48
2021/12/09 10:39:22;;;;;;;0.00;0.00;;;2.90;99.90;;;;;;5092704;28;20115;-50
2021/12/09 10:41:48;;;;;;;0.25;0.25;;;3.00;99.90;;;;;;5092286;28;20474;-45
2021/12/09 10:44:14;;;;;;;0.28;0.28;;;3.10;99.90;;;;;;5092277;28;20070;-50
2021/12/09 10:46:52;;;;;;;0.35;0.22;;;3.10;99.90;;;;;;5092190;28;20031;-46
2021/12/09 10:49:19;;;;;;;0.00;0.00;;;3.10;99.90;;;;;;5092485;28;20016;-48
2021/12/09 10:51:57;;;;;;;0.00;0.00;;;3.00;99.90;;;;;;5092473;28;20073;-48
2021/12/09 10:54:35;;;;;;;0.43;0.30;;;3.10;99.90;;;;;;5092249;28;20035;-48
2021/12/09 10:57:28;;;;;;;1.10;0.77;;;3.20;99.90;;;;;;5092058;28;20047;-46
2021/12/09 10:59:55;;;;;;;44.35;3.58;;;3.10;99.90;;;;;;5087847;28;20067;-48
2021/12/09 11:02:21;;;;;;;0.08;0.08;;;3.20;99.90;;;;;;5092348;28;20424;-46
2021/12/09 11:05:03;;;;;;;4.22;0.75;;;3.20;99.90;;;;;;5092438;28;20048;-47
2021/12/09 11:07:31;;;;;;;0.60;0.60;;;3.00;99.90;;;;;;5093279;28;20043;-49
2021/12/09 11:10:32;;;;;;;0.73;0.73;;;3.00;99.90;;;;;;5095723;28;20056;-46
2021/12/09 11:12:59;;;;;;;3.47;0.80;;;3.10;99.90;;;;;;5053471;28;20033;-50
2021/12/09 11:15:52;;;;;;;0.00;0.00;;;3.10;99.90;;;;;;5087187;28;20462;-46
2021/12/09 11:18:32;;;;;;;1.35;0.85;;;3.20;99.90;;;;;;5095363;28;20081;-48
2021/12/09 11:21:01;;;;;;;1.17;1.08;;;3.00;99.90;;;;;;5095666;28;20027;-47
2021/12/09 11:23:33;;;;;;;0.80;0.57;;;3.10;99.90;;;;;;5096054;28;20035;-48
2021/12/09 11:26:26;;;;;;;0.28;0.25;;;3.10;99.90;;;;;;5095536;28;20024;-47
2021/12/09 11:29:17;;;;;;;0.30;0.30;;;3.00;99.90;;;;;;5095567;28;20032;-52
2021/12/09 11:31:56;;;;;;;1.77;0.85;;;3.20;99.90;;;;;;5090476;28;20116;-49
2021/12/09 11:34:23;;;;;;;0.03;0.03;;;3.20;99.90;;;;;;5095603;28;20035;-47
2021/12/09 11:37:03;;;;;;;2.47;1.80;;;3.20;99.90;;;;;;5095700;28;20020;-46
2021/12/09 11:39:35;;;;;;;0.00;0.00;;;3.10;99.90;;;;;;5095009;28;20028;-49
2021/12/09 11:42:22;;;;;;;0.43;0.43;;;3.20;99.90;;;;;;5095206;28;20023;-47
2021/12/09 11:44:48;;;;;;;2.28;1.45;;;3.10;99.90;;;;;;5094299;28;20032;-46
2021/12/09 11:47:15;;;;;;;1.08;0.32;;;3.20;99.90;;;;;;5094850;28;20028;-47
2021/12/09 11:49:43;;;;;;;3.20;1.67;;;3.10;99.90;;;;;;5094975;28;20020;-49
2021/12/09 11:52:15;;;;;;;1.55;0.52;;;3.00;99.90;;;;;;5095360;28;20032;-47
2021/12/09 11:54:54;;;;;;;1.58;1.48;;;3.00;99.90;;;;;;5094738;28;20497;-47
2021/12/09 11:58:25;;;;;;;0.00;0.00;;;3.00;99.90;;;;;;5094777;28;20081;-49
2021/12/09 12:12:31;;;;;;;0.22;0.22;;;3.30;99.90;;;;;;5094619;28;20146;-46
2021/12/09 12:15:21;;;;;;;0.00;0.00;;;3.20;99.90;;;;;;5094601;28;20028;-45
2021/12/09 12:21:17;;;;;;;1.45;0.93;;;3.30;99.90;;;;;;5093707;28;20058;-46
2021/12/09 12:27:22;;;;;;;1.20;1.13;;;3.40;99.90;;;;;;5094421;28;20039;-48
2021/12/09 12:35:12;;;;;;;4.55;3.40;;;3.50;99.90;;;;;;5094347;28;20440;-48
2021/12/09 12:40:24;;;;;;;0.52;0.52;;;3.30;99.90;;;;;;5094237;28;20149;-50
2021/12/09 12:43:02;;;;;;;0.00;0.00;;;3.30;99.90;;;;;;5094096;28;20434;-46
2021/12/09 12:50:35;;;;;;;0.00;0.00;;;3.10;99.90;;;;;;5093999;28;20089;-48
2021/12/09 12:53:41;;;;;;;3.20;2.95;;;3.20;99.90;;;;;;5093754;28;20016;-47
2021/12/09 12:56:10;;;;;;;2.65;0.70;;;3.20;99.90;;;;;;5075550;28;20024;-52
2021/12/09 12:58:36;;;;;;;1.13;0.95;;;3.20;99.90;;;;;;5093391;28;20028;-49
2021/12/09 13:01:16;;;;;;;1.90;0.17;;;3.20;99.90;;;;;;5094177;28;20062;-51
2021/12/09 13:03:47;;;;;;;1.02;0.82;;;3.20;99.90;;;;;;5093999;28;20078;-47
2021/12/09 13:06:44;;;;;;;1.30;0.95;;;3.20;99.90;;;;;;5093421;28;20081;-50
2021/12/09 13:12:03;;;;;;;0.00;0.00;;;3.30;99.90;;;;;;5093511;28;20078;-49
2021/12/09 13:14:33;;;;;;;1.05;0.95;;;3.30;99.90;;;;;;5093191;28;20028;-48
2021/12/09 13:17:14;;;;;;;0.52;0.52;;;3.30;99.90;;;;;;5093351;28;20127;-54
2021/12/09 13:19:59;;;;;;;0.38;0.32;;;3.30;99.90;;;;;;5092984;28;20032;-48
2021/12/09 13:22:40;;;;;;;3.72;0.43;;;3.40;99.90;;;;;;5093528;28;20020;-49
2021/12/09 13:25:29;;;;;;;1.40;1.30;;;3.30;99.90;;;;;;5091980;28;20062;-46
2021/12/09 13:28:03;;;;;;;0.22;0.22;;;3.30;99.90;;;;;;5093316;28;20059;-50
2021/12/09 13:36:15;;;;;;;0.20;0.20;;;3.30;99.90;;;;;;5092760;28;20085;-48
2021/12/09 13:49:50;;;;;;;1.45;1.35;;;3.30;99.90;;;;;;5092941;28;20047;-48
2021/12/09 13:55:08;;;;;;;0.98;0.80;;;3.10;99.90;;;;;;5092687;28;20028;-46
2021/12/09 13:57:53;;;;;;;0.17;0.17;;;3.10;99.90;;;;;;5092288;28;20065;-46
2021/12/09 14:00:24;;;;;;;1.52;0.70;;;3.20;99.90;;;;;;5092628;28;20073;-49
2021/12/09 14:02:59;;;;;;;5.95;2.28;;;3.30;99.90;;;;;;5091789;28;20061;-52
2021/12/09 14:05:26;;;;;;;0.00;0.00;;;3.20;99.90;;;;;;5081966;28;20039;-49
2021/12/09 14:08:04;;;;;;;0.52;0.52;;;3.30;99.90;;;;;;5077006;28;20035;-49